sensor_id;sensor_type;location;lat;lon;timestamp;P1;durP1;ratioP1;P2;durP2;ratioP2
20611;SDS011;10465;42.686;23.364;2023-08-21T00:00:09;5.65;;;4.80;;
20611;SDS011;10465;42.686;23.364;2023-08-21T00:02:37;7.68;;;5.20;;
20611;SDS011;10465;42.686;23.364;2023-08-21T00:05:02;5.53;;;4.82;;
20611;SDS011;10465;42.686;23.364;2023-08-21T00:07:28;5.93;;;4.70;;
20611;SDS011;10465;42.686;23.364;2023-08-21T00:09:53;7.10;;;5.30;;
20611;SDS011;10465;42.686;23.364;2023-08-21T00:12:19;5.50;;;4.97;;
20611;SDS011;10465;42.686;23.364;2023-08-21T00:14:44;4.53;;;4.13;;
20611;SDS011;10465;42.686;23.364;2023-08-21T00:17:09;5.53;;;4.50;;
20611;SDS011;10465;42.686;23.364;2023-08-21T00:19:35;5.10;;;4.60;;
20611;SDS011;10465;42.686;23.364;2023-08-21T00:22:00;6.20;;;4.85;;
20611;SDS011;10465;42.686;23.364;2023-08-21T00:24:26;4.43;;;3.95;;
20611;SDS011;10465;42.686;23.364;2023-08-21T00:26:51;7.35;;;4.43;;
20611;SDS011;10465;42.686;23.364;2023-08-21T00:29:17;5.53;;;4.40;;
20611;SDS011;10465;42.686;23.364;2023-08-21T00:31:42;6.03;;;4.50;;
20611;SDS011;10465;42.686;23.364;2023-08-21T00:34:07;5.45;;;4.30;;
20611;SDS011;10465;42.686;23.364;2023-08-21T00:36:33;7.18;;;4.25;;
20611;SDS011;10465;42.686;23.364;2023-08-21T00:38:58;6.03;;;4.32;;
20611;SDS011;10465;42.686;23.364;2023-08-21T00:41:24;6.15;;;4.63;;
20611;SDS011;10465;42.686;23.364;2023-08-21T00:43:49;5.80;;;4.38;;
20611;SDS011;10465;42.686;23.364;2023-08-21T00:46:15;4.95;;;4.10;;
20611;SDS011;10465;42.686;23.364;2023-08-21T00:48:42;4.75;;;4.25;;
20611;SDS011;10465;42.686;23.364;2023-08-21T00:51:08;5.75;;;4.65;;
20611;SDS011;10465;42.686;23.364;2023-08-21T00:53:37;5.90;;;4.57;;
20611;SDS011;10465;42.686;23.364;2023-08-21T00:56:03;7.05;;;4.05;;
20611;SDS011;10465;42.686;23.364;2023-08-21T00:58:29;6.22;;;4.35;;
20611;SDS011;10465;42.686;23.364;2023-08-21T01:00:54;6.43;;;4.00;;
20611;SDS011;10465;42.686;23.364;2023-08-21T01:03:20;4.88;;;4.38;;
20611;SDS011;10465;42.686;23.364;2023-08-21T01:05:48;5.85;;;4.40;;
20611;SDS011;10465;42.686;23.364;2023-08-21T01:08:15;6.65;;;4.60;;
20611;SDS011;10465;42.686;23.364;2023-08-21T01:13:19;4.88;;;4.25;;
20611;SDS011;10465;42.686;23.364;2023-08-21T01:15:50;6.00;;;4.35;;
20611;SDS011;10465;42.686;23.364;2023-08-21T01:18:19;5.78;;;4.50;;
20611;SDS011;10465;42.686;23.364;2023-08-21T01:20:46;7.30;;;4.43;;
20611;SDS011;10465;42.686;23.364;2023-08-21T01:23:26;6.20;;;4.50;;
20611;SDS011;10465;42.686;23.364;2023-08-21T01:26:01;7.25;;;4.55;;
20611;SDS011;10465;42.686;23.364;2023-08-21T01:28:33;5.22;;;4.22;;
20611;SDS011;10465;42.686;23.364;2023-08-21T01:31:01;6.88;;;4.85;;
20611;SDS011;10465;42.686;23.364;2023-08-21T01:33:33;5.85;;;4.90;;
20611;SDS011;10465;42.686;23.364;2023-08-21T01:36:02;7.47;;;5.47;;
20611;SDS011;10465;42.686;23.364;2023-08-21T01:38:33;4.82;;;4.32;;
20611;SDS011;10465;42.686;23.364;2023-08-21T01:41:00;7.63;;;4.35;;
20611;SDS011;10465;42.686;23.364;2023-08-21T01:43:26;5.45;;;4.75;;
20611;SDS011;10465;42.686;23.364;2023-08-21T01:45:52;5.55;;;4.53;;
20611;SDS011;10465;42.686;23.364;2023-08-21T01:48:17;6.30;;;4.80;;
20611;SDS011;10465;42.686;23.364;2023-08-21T01:50:43;6.78;;;4.93;;
20611;SDS011;10465;42.686;23.364;2023-08-21T01:53:08;6.03;;;4.47;;
20611;SDS011;10465;42.686;23.364;2023-08-21T01:55:34;6.32;;;4.65;;
20611;SDS011;10465;42.686;23.364;2023-08-21T01:57:59;5.85;;;4.60;;
20611;SDS011;10465;42.686;23.364;2023-08-21T02:00:25;8.27;;;4.65;;
20611;SDS011;10465;42.686;23.364;2023-08-21T02:02:50;7.18;;;4.65;;
20611;SDS011;10465;42.686;23.364;2023-08-21T02:05:16;7.00;;;5.10;;
20611;SDS011;10465;42.686;23.364;2023-08-21T02:07:41;6.63;;;5.00;;
20611;SDS011;10465;42.686;23.364;2023-08-21T02:10:07;5.93;;;4.63;;
20611;SDS011;10465;42.686;23.364;2023-08-21T02:12:32;7.03;;;4.78;;
20611;SDS011;10465;42.686;23.364;2023-08-21T02:14:58;5.85;;;4.30;;
20611;SDS011;10465;42.686;23.364;2023-08-21T02:17:25;6.55;;;4.90;;
20611;SDS011;10465;42.686;23.364;2023-08-21T02:19:51;5.03;;;4.50;;
20611;SDS011;10465;42.686;23.364;2023-08-21T02:22:16;7.50;;;5.10;;
20611;SDS011;10465;42.686;23.364;2023-08-21T02:24:42;7.22;;;4.70;;
20611;SDS011;10465;42.686;23.364;2023-08-21T02:27:07;5.63;;;4.50;;
20611;SDS011;10465;42.686;23.364;2023-08-21T02:29:33;6.40;;;4.32;;
20611;SDS011;10465;42.686;23.364;2023-08-21T02:31:58;6.47;;;4.75;;
20611;SDS011;10465;42.686;23.364;2023-08-21T02:34:24;6.47;;;4.80;;
20611;SDS011;10465;42.686;23.364;2023-08-21T02:36:49;5.97;;;4.78;;
20611;SDS011;10465;42.686;23.364;2023-08-21T02:39:15;8.65;;;4.60;;
20611;SDS011;10465;42.686;23.364;2023-08-21T02:41:40;6.07;;;4.55;;
20611;SDS011;10465;42.686;23.364;2023-08-21T02:44:06;5.90;;;4.50;;
20611;SDS011;10465;42.686;23.364;2023-08-21T02:46:31;5.53;;;4.53;;
20611;SDS011;10465;42.686;23.364;2023-08-21T02:49:01;6.28;;;4.65;;
20611;SDS011;10465;42.686;23.364;2023-08-21T02:51:27;5.50;;;4.63;;
20611;SDS011;10465;42.686;23.364;2023-08-21T02:53:52;5.25;;;4.57;;
20611;SDS011;10465;42.686;23.364;2023-08-21T02:56:18;6.88;;;4.93;;
20611;SDS011;10465;42.686;23.364;2023-08-21T02:58:44;7.00;;;4.93;;
20611;SDS011;10465;42.686;23.364;2023-08-21T03:01:09;6.60;;;4.75;;
20611;SDS011;10465;42.686;23.364;2023-08-21T03:03:34;5.18;;;4.47;;
20611;SDS011;10465;42.686;23.364;2023-08-21T03:06:01;5.38;;;4.18;;
20611;SDS011;10465;42.686;23.364;2023-08-21T03:08:26;7.43;;;4.35;;
20611;SDS011;10465;42.686;23.364;2023-08-21T03:10:52;5.40;;;4.55;;
20611;SDS011;10465;42.686;23.364;2023-08-21T03:13:17;6.30;;;4.63;;
20611;SDS011;10465;42.686;23.364;2023-08-21T03:15:42;5.43;;;4.85;;
20611;SDS011;10465;42.686;23.364;2023-08-21T03:18:08;6.80;;;4.63;;
20611;SDS011;10465;42.686;23.364;2023-08-21T03:20:33;5.53;;;4.90;;
20611;SDS011;10465;42.686;23.364;2023-08-21T03:22:59;6.57;;;4.20;;
20611;SDS011;10465;42.686;23.364;2023-08-21T03:25:24;6.07;;;4.55;;
20611;SDS011;10465;42.686;23.364;2023-08-21T03:27:52;6.13;;;4.68;;
20611;SDS011;10465;42.686;23.364;2023-08-21T03:30:18;7.15;;;4.40;;
20611;SDS011;10465;42.686;23.364;2023-08-21T03:32:43;6.43;;;4.75;;
20611;SDS011;10465;42.686;23.364;2023-08-21T03:35:09;5.57;;;4.43;;
20611;SDS011;10465;42.686;23.364;2023-08-21T03:37:34;6.68;;;4.35;;
20611;SDS011;10465;42.686;23.364;2023-08-21T03:40:01;8.82;;;4.78;;
20611;SDS011;10465;42.686;23.364;2023-08-21T03:42:29;5.65;;;4.35;;
20611;SDS011;10465;42.686;23.364;2023-08-21T03:44:55;6.60;;;4.68;;
20611;SDS011;10465;42.686;23.364;2023-08-21T03:47:20;5.68;;;4.18;;
20611;SDS011;10465;42.686;23.364;2023-08-21T03:49:46;5.90;;;4.50;;
20611;SDS011;10465;42.686;23.364;2023-08-21T03:52:13;4.72;;;4.07;;
20611;SDS011;10465;42.686;23.364;2023-08-21T03:54:39;7.00;;;4.53;;
20611;SDS011;10465;42.686;23.364;2023-08-21T03:57:06;5.80;;;4.50;;
20611;SDS011;10465;42.686;23.364;2023-08-21T03:59:32;6.45;;;4.57;;
20611;SDS011;10465;42.686;23.364;2023-08-21T04:01:57;5.47;;;4.13;;
20611;SDS011;10465;42.686;23.364;2023-08-21T04:04:23;6.13;;;4.20;;
20611;SDS011;10465;42.686;23.364;2023-08-21T04:06:49;5.60;;;4.60;;
20611;SDS011;10465;42.686;23.364;2023-08-21T04:09:14;5.65;;;4.50;;
20611;SDS011;10465;42.686;23.364;2023-08-21T04:11:40;8.45;;;4.70;;
20611;SDS011;10465;42.686;23.364;2023-08-21T04:14:06;8.05;;;4.70;;
20611;SDS011;10465;42.686;23.364;2023-08-21T04:16:31;5.30;;;4.35;;
20611;SDS011;10465;42.686;23.364;2023-08-21T04:18:57;5.88;;;4.60;;
20611;SDS011;10465;42.686;23.364;2023-08-21T04:21:22;5.25;;;4.43;;
20611;SDS011;10465;42.686;23.364;2023-08-21T04:23:48;5.47;;;4.55;;
20611;SDS011;10465;42.686;23.364;2023-08-21T04:26:13;8.13;;;4.72;;
20611;SDS011;10465;42.686;23.364;2023-08-21T04:28:39;5.32;;;4.60;;
20611;SDS011;10465;42.686;23.364;2023-08-21T04:31:05;7.65;;;5.63;;
20611;SDS011;10465;42.686;23.364;2023-08-21T04:33:31;6.22;;;5.07;;
20611;SDS011;10465;42.686;23.364;2023-08-21T04:35:58;7.05;;;4.57;;
20611;SDS011;10465;42.686;23.364;2023-08-21T04:38:24;7.85;;;5.20;;
20611;SDS011;10465;42.686;23.364;2023-08-21T04:40:49;6.70;;;5.32;;
20611;SDS011;10465;42.686;23.364;2023-08-21T04:43:15;6.72;;;5.22;;
20611;SDS011;10465;42.686;23.364;2023-08-21T04:45:51;8.35;;;5.18;;
20611;SDS011;10465;42.686;23.364;2023-08-21T04:48:20;7.63;;;5.28;;
20611;SDS011;10465;42.686;23.364;2023-08-21T04:50:46;6.43;;;4.80;;
20611;SDS011;10465;42.686;23.364;2023-08-21T04:53:12;7.80;;;5.57;;
20611;SDS011;10465;42.686;23.364;2023-08-21T04:55:39;8.95;;;5.88;;
20611;SDS011;10465;42.686;23.364;2023-08-21T04:58:05;7.25;;;4.88;;
20611;SDS011;10465;42.686;23.364;2023-08-21T05:00:34;9.70;;;5.45;;
20611;SDS011;10465;42.686;23.364;2023-08-21T05:03:00;7.78;;;5.70;;
20611;SDS011;10465;42.686;23.364;2023-08-21T05:05:26;6.93;;;5.55;;
20611;SDS011;10465;42.686;23.364;2023-08-21T05:07:52;6.80;;;5.53;;
20611;SDS011;10465;42.686;23.364;2023-08-21T05:10:18;7.15;;;5.45;;
20611;SDS011;10465;42.686;23.364;2023-08-21T05:12:44;8.43;;;5.63;;
20611;SDS011;10465;42.686;23.364;2023-08-21T05:15:10;10.95;;;5.85;;
20611;SDS011;10465;42.686;23.364;2023-08-21T05:17:35;7.53;;;5.43;;
20611;SDS011;10465;42.686;23.364;2023-08-21T05:20:01;7.60;;;5.57;;
20611;SDS011;10465;42.686;23.364;2023-08-21T05:22:26;8.52;;;5.38;;
20611;SDS011;10465;42.686;23.364;2023-08-21T05:24:51;10.60;;;5.90;;
20611;SDS011;10465;42.686;23.364;2023-08-21T05:27:17;6.32;;;4.97;;
20611;SDS011;10465;42.686;23.364;2023-08-21T05:29:43;8.15;;;4.95;;
20611;SDS011;10465;42.686;23.364;2023-08-21T05:32:08;8.10;;;5.28;;
20611;SDS011;10465;42.686;23.364;2023-08-21T05:34:34;5.95;;;4.97;;
20611;SDS011;10465;42.686;23.364;2023-08-21T05:36:59;6.05;;;5.00;;
20611;SDS011;10465;42.686;23.364;2023-08-21T05:39:25;7.53;;;4.93;;
20611;SDS011;10465;42.686;23.364;2023-08-21T05:41:50;7.78;;;5.25;;
20611;SDS011;10465;42.686;23.364;2023-08-21T05:44:16;6.95;;;4.93;;
20611;SDS011;10465;42.686;23.364;2023-08-21T05:46:41;5.72;;;4.95;;
20611;SDS011;10465;42.686;23.364;2023-08-21T05:49:06;6.03;;;5.22;;
20611;SDS011;10465;42.686;23.364;2023-08-21T05:51:35;6.20;;;5.38;;
20611;SDS011;10465;42.686;23.364;2023-08-21T05:54:01;6.38;;;5.00;;
20611;SDS011;10465;42.686;23.364;2023-08-21T05:56:26;6.05;;;5.03;;
20611;SDS011;10465;42.686;23.364;2023-08-21T05:58:52;10.40;;;5.30;;
20611;SDS011;10465;42.686;23.364;2023-08-21T06:01:18;6.65;;;5.25;;
20611;SDS011;10465;42.686;23.364;2023-08-21T06:03:43;5.60;;;4.60;;
20611;SDS011;10465;42.686;23.364;2023-08-21T06:06:09;8.38;;;5.55;;
20611;SDS011;10465;42.686;23.364;2023-08-21T06:08:34;6.78;;;5.28;;
20611;SDS011;10465;42.686;23.364;2023-08-21T06:11:00;7.13;;;4.70;;
20611;SDS011;10465;42.686;23.364;2023-08-21T06:13:25;9.10;;;5.97;;
20611;SDS011;10465;42.686;23.364;2023-08-21T06:15:51;6.65;;;5.15;;
20611;SDS011;10465;42.686;23.364;2023-08-21T06:18:17;8.88;;;5.47;;
20611;SDS011;10465;42.686;23.364;2023-08-21T06:20:43;6.93;;;4.97;;
20611;SDS011;10465;42.686;23.364;2023-08-21T06:23:09;7.63;;;5.25;;
20611;SDS011;10465;42.686;23.364;2023-08-21T06:25:35;8.15;;;5.43;;
20611;SDS011;10465;42.686;23.364;2023-08-21T06:28:01;11.57;;;5.28;;
20611;SDS011;10465;42.686;23.364;2023-08-21T06:30:26;5.00;;;4.50;;
20611;SDS011;10465;42.686;23.364;2023-08-21T06:32:52;5.55;;;4.65;;
20611;SDS011;10465;42.686;23.364;2023-08-21T06:35:18;6.38;;;5.05;;
20611;SDS011;10465;42.686;23.364;2023-08-21T06:37:43;5.53;;;4.70;;
20611;SDS011;10465;42.686;23.364;2023-08-21T06:40:09;6.53;;;5.00;;
20611;SDS011;10465;42.686;23.364;2023-08-21T06:42:34;6.85;;;4.68;;
20611;SDS011;10465;42.686;23.364;2023-08-21T06:45:00;8.07;;;5.60;;
20611;SDS011;10465;42.686;23.364;2023-08-21T06:47:25;6.93;;;4.88;;
20611;SDS011;10465;42.686;23.364;2023-08-21T06:49:51;6.72;;;5.18;;
20611;SDS011;10465;42.686;23.364;2023-08-21T06:52:17;6.00;;;4.90;;
20611;SDS011;10465;42.686;23.364;2023-08-21T06:54:42;6.05;;;4.78;;
20611;SDS011;10465;42.686;23.364;2023-08-21T06:57:08;8.73;;;4.78;;
20611;SDS011;10465;42.686;23.364;2023-08-21T06:59:33;9.73;;;5.18;;
20611;SDS011;10465;42.686;23.364;2023-08-21T07:02:01;8.02;;;5.57;;
20611;SDS011;10465;42.686;23.364;2023-08-21T07:04:27;6.18;;;4.80;;
20611;SDS011;10465;42.686;23.364;2023-08-21T07:06:53;6.80;;;5.25;;
20611;SDS011;10465;42.686;23.364;2023-08-21T07:09:19;6.80;;;5.47;;
20611;SDS011;10465;42.686;23.364;2023-08-21T07:11:44;7.80;;;4.93;;
20611;SDS011;10465;42.686;23.364;2023-08-21T07:14:10;5.78;;;5.00;;
20611;SDS011;10465;42.686;23.364;2023-08-21T07:16:37;7.55;;;6.03;;
20611;SDS011;10465;42.686;23.364;2023-08-21T07:19:02;11.45;;;5.47;;
20611;SDS011;10465;42.686;23.364;2023-08-21T07:21:28;9.02;;;5.53;;
20611;SDS011;10465;42.686;23.364;2023-08-21T07:23:53;7.95;;;5.15;;
20611;SDS011;10465;42.686;23.364;2023-08-21T07:26:19;6.88;;;5.50;;
20611;SDS011;10465;42.686;23.364;2023-08-21T07:28:44;7.07;;;5.32;;
20611;SDS011;10465;42.686;23.364;2023-08-21T07:31:09;5.53;;;4.63;;
20611;SDS011;10465;42.686;23.364;2023-08-21T07:33:35;9.93;;;5.20;;
20611;SDS011;10465;42.686;23.364;2023-08-21T07:36:02;9.25;;;5.38;;
20611;SDS011;10465;42.686;23.364;2023-08-21T07:38:29;7.00;;;4.88;;
20611;SDS011;10465;42.686;23.364;2023-08-21T07:41:04;7.82;;;5.07;;
20611;SDS011;10465;42.686;23.364;2023-08-21T07:43:32;5.90;;;4.47;;
20611;SDS011;10465;42.686;23.364;2023-08-21T07:46:01;4.88;;;4.35;;
20611;SDS011;10465;42.686;23.364;2023-08-21T07:48:27;7.75;;;4.22;;
20611;SDS011;10465;42.686;23.364;2023-08-21T07:50:53;4.95;;;4.45;;
20611;SDS011;10465;42.686;23.364;2023-08-21T07:53:19;6.40;;;5.10;;
20611;SDS011;10465;42.686;23.364;2023-08-21T07:55:45;7.22;;;4.47;;
20611;SDS011;10465;42.686;23.364;2023-08-21T07:58:10;6.97;;;4.05;;
20611;SDS011;10465;42.686;23.364;2023-08-21T08:00:36;6.05;;;4.40;;
20611;SDS011;10465;42.686;23.364;2023-08-21T08:03:02;6.72;;;4.68;;
20611;SDS011;10465;42.686;23.364;2023-08-21T08:05:28;5.05;;;4.38;;
20611;SDS011;10465;42.686;23.364;2023-08-21T08:07:53;4.38;;;3.60;;
20611;SDS011;10465;42.686;23.364;2023-08-21T08:10:19;5.93;;;4.47;;
20611;SDS011;10465;42.686;23.364;2023-08-21T08:12:44;5.13;;;4.03;;
20611;SDS011;10465;42.686;23.364;2023-08-21T08:15:10;5.38;;;4.13;;
20611;SDS011;10465;42.686;23.364;2023-08-21T08:17:35;5.75;;;4.70;;
20611;SDS011;10465;42.686;23.364;2023-08-21T08:20:01;5.18;;;4.22;;
20611;SDS011;10465;42.686;23.364;2023-08-21T08:22:27;5.47;;;4.07;;
20611;SDS011;10465;42.686;23.364;2023-08-21T08:24:52;6.95;;;4.45;;
20611;SDS011;10465;42.686;23.364;2023-08-21T08:27:18;7.50;;;4.40;;
20611;SDS011;10465;42.686;23.364;2023-08-21T08:29:43;6.97;;;4.28;;
20611;SDS011;10465;42.686;23.364;2023-08-21T08:32:08;4.95;;;3.88;;
20611;SDS011;10465;42.686;23.364;2023-08-21T08:34:34;5.38;;;4.05;;
20611;SDS011;10465;42.686;23.364;2023-08-21T08:36:59;5.70;;;3.90;;
20611;SDS011;10465;42.686;23.364;2023-08-21T08:39:25;5.95;;;4.18;;
20611;SDS011;10465;42.686;23.364;2023-08-21T08:42:02;4.25;;;3.63;;
20611;SDS011;10465;42.686;23.364;2023-08-21T08:44:29;3.95;;;3.55;;
20611;SDS011;10465;42.686;23.364;2023-08-21T08:46:55;5.43;;;3.95;;
20611;SDS011;10465;42.686;23.364;2023-08-21T08:49:21;4.63;;;3.72;;
20611;SDS011;10465;42.686;23.364;2023-08-21T08:51:48;5.68;;;3.72;;
20611;SDS011;10465;42.686;23.364;2023-08-21T08:54:16;6.57;;;3.72;;
20611;SDS011;10465;42.686;23.364;2023-08-21T08:56:43;5.57;;;4.10;;
20611;SDS011;10465;42.686;23.364;2023-08-21T08:59:09;5.45;;;3.97;;
20611;SDS011;10465;42.686;23.364;2023-08-21T09:01:34;5.05;;;3.85;;
20611;SDS011;10465;42.686;23.364;2023-08-21T09:04:00;5.10;;;3.90;;
20611;SDS011;10465;42.686;23.364;2023-08-21T09:06:26;4.00;;;3.60;;
20611;SDS011;10465;42.686;23.364;2023-08-21T09:08:53;4.80;;;3.80;;
20611;SDS011;10465;42.686;23.364;2023-08-21T09:11:22;5.45;;;3.67;;
20611;SDS011;10465;42.686;23.364;2023-08-21T09:13:52;4.43;;;3.58;;
20611;SDS011;10465;42.686;23.364;2023-08-21T09:16:19;3.45;;;3.15;;
20611;SDS011;10465;42.686;23.364;2023-08-21T09:18:52;4.43;;;3.50;;
20611;SDS011;10465;42.686;23.364;2023-08-21T09:21:19;6.80;;;4.10;;
20611;SDS011;10465;42.686;23.364;2023-08-21T09:23:46;4.63;;;3.65;;
20611;SDS011;10465;42.686;23.364;2023-08-21T09:26:18;4.80;;;4.00;;
20611;SDS011;10465;42.686;23.364;2023-08-21T09:28:50;6.20;;;3.95;;
20611;SDS011;10465;42.686;23.364;2023-08-21T09:31:23;4.60;;;3.92;;
20611;SDS011;10465;42.686;23.364;2023-08-21T09:33:55;5.18;;;3.60;;
20611;SDS011;10465;42.686;23.364;2023-08-21T09:36:22;4.78;;;4.00;;
20611;SDS011;10465;42.686;23.364;2023-08-21T09:38:50;5.47;;;3.85;;
20611;SDS011;10465;42.686;23.364;2023-08-21T09:41:18;5.30;;;3.10;;
20611;SDS011;10465;42.686;23.364;2023-08-21T09:43:44;5.95;;;3.72;;
20611;SDS011;10465;42.686;23.364;2023-08-21T09:46:10;5.38;;;3.70;;
20611;SDS011;10465;42.686;23.364;2023-08-21T09:48:40;8.13;;;3.92;;
20611;SDS011;10465;42.686;23.364;2023-08-21T09:51:06;4.05;;;3.60;;
20611;SDS011;10465;42.686;23.364;2023-08-21T09:53:32;7.47;;;4.97;;
20611;SDS011;10465;42.686;23.364;2023-08-21T09:55:57;4.05;;;3.65;;
20611;SDS011;10465;42.686;23.364;2023-08-21T09:58:28;7.07;;;4.18;;
20611;SDS011;10465;42.686;23.364;2023-08-21T10:00:56;5.07;;;3.40;;
20611;SDS011;10465;42.686;23.364;2023-08-21T10:03:23;5.70;;;4.60;;
20611;SDS011;10465;42.686;23.364;2023-08-21T10:05:49;4.88;;;4.28;;
20611;SDS011;10465;42.686;23.364;2023-08-21T10:08:17;5.25;;;4.28;;
20611;SDS011;10465;42.686;23.364;2023-08-21T10:10:48;4.40;;;4.00;;
20611;SDS011;10465;42.686;23.364;2023-08-21T10:13:13;4.18;;;3.75;;
20611;SDS011;10465;42.686;23.364;2023-08-21T10:15:40;4.63;;;3.55;;
20611;SDS011;10465;42.686;23.364;2023-08-21T10:18:19;4.60;;;4.13;;
20611;SDS011;10465;42.686;23.364;2023-08-21T10:20:49;6.07;;;3.70;;
20611;SDS011;10465;42.686;23.364;2023-08-21T10:23:25;3.67;;;3.13;;
20611;SDS011;10465;42.686;23.364;2023-08-21T10:25:59;3.67;;;3.30;;
20611;SDS011;10465;42.686;23.364;2023-08-21T10:33:57;4.30;;;3.30;;
20611;SDS011;10465;42.686;23.364;2023-08-21T10:39:23;3.70;;;3.30;;
20611;SDS011;10465;42.686;23.364;2023-08-21T10:41:54;4.32;;;3.35;;
20611;SDS011;10465;42.686;23.364;2023-08-21T10:44:35;3.72;;;3.42;;
20611;SDS011;10465;42.686;23.364;2023-08-21T10:47:14;3.90;;;3.05;;
20611;SDS011;10465;42.686;23.364;2023-08-21T10:49:42;3.90;;;3.50;;
20611;SDS011;10465;42.686;23.364;2023-08-21T10:52:10;4.20;;;3.20;;
20611;SDS011;10465;42.686;23.364;2023-08-21T10:54:42;4.22;;;3.35;;
20611;SDS011;10465;42.686;23.364;2023-08-21T10:57:09;4.70;;;3.22;;
20611;SDS011;10465;42.686;23.364;2023-08-21T10:59:34;3.83;;;3.00;;
20611;SDS011;10465;42.686;23.364;2023-08-21T11:01:59;3.58;;;3.22;;
20611;SDS011;10465;42.686;23.364;2023-08-21T11:04:25;4.60;;;3.38;;
20611;SDS011;10465;42.686;23.364;2023-08-21T11:06:51;3.85;;;3.17;;
20611;SDS011;10465;42.686;23.364;2023-08-21T11:09:17;6.10;;;3.50;;
20611;SDS011;10465;42.686;23.364;2023-08-21T11:11:43;3.92;;;3.35;;
20611;SDS011;10465;42.686;23.364;2023-08-21T11:14:09;4.10;;;3.33;;
20611;SDS011;10465;42.686;23.364;2023-08-21T11:16:34;4.32;;;3.53;;
20611;SDS011;10465;42.686;23.364;2023-08-21T11:19:03;4.30;;;3.90;;
20611;SDS011;10465;42.686;23.364;2023-08-21T11:21:30;3.85;;;3.30;;
20611;SDS011;10465;42.686;23.364;2023-08-21T11:23:55;4.32;;;3.30;;
20611;SDS011;10465;42.686;23.364;2023-08-21T11:26:21;3.80;;;3.20;;
20611;SDS011;10465;42.686;23.364;2023-08-21T11:28:46;3.35;;;2.92;;
20611;SDS011;10465;42.686;23.364;2023-08-21T11:31:13;4.10;;;3.10;;
20611;SDS011;10465;42.686;23.364;2023-08-21T11:33:38;3.83;;;3.30;;
20611;SDS011;10465;42.686;23.364;2023-08-21T11:36:04;3.03;;;2.72;;
20611;SDS011;10465;42.686;23.364;2023-08-21T11:38:30;4.95;;;3.28;;
20611;SDS011;10465;42.686;23.364;2023-08-21T11:40:56;3.20;;;2.90;;
20611;SDS011;10465;42.686;23.364;2023-08-21T11:46:07;4.30;;;3.78;;
20611;SDS011;10465;42.686;23.364;2023-08-21T11:48:36;6.10;;;3.50;;
20611;SDS011;10465;42.686;23.364;2023-08-21T11:51:02;3.65;;;3.22;;
20611;SDS011;10465;42.686;23.364;2023-08-21T11:53:37;2.97;;;2.63;;
20611;SDS011;10465;42.686;23.364;2023-08-21T11:56:10;2.88;;;2.67;;
20611;SDS011;10465;42.686;23.364;2023-08-21T11:58:43;3.25;;;2.95;;
20611;SDS011;10465;42.686;23.364;2023-08-21T12:01:17;3.10;;;2.60;;
20611;SDS011;10465;42.686;23.364;2023-08-21T12:03:43;4.90;;;4.00;;
20611;SDS011;10465;42.686;23.364;2023-08-21T12:06:09;3.90;;;3.45;;
20611;SDS011;10465;42.686;23.364;2023-08-21T12:08:36;4.65;;;3.15;;
20611;SDS011;10465;42.686;23.364;2023-08-21T12:11:01;3.05;;;2.75;;
20611;SDS011;10465;42.686;23.364;2023-08-21T12:13:27;2.92;;;2.70;;
20611;SDS011;10465;42.686;23.364;2023-08-21T12:15:53;4.88;;;3.20;;
20611;SDS011;10465;42.686;23.364;2023-08-21T12:18:18;3.33;;;3.00;;
20611;SDS011;10465;42.686;23.364;2023-08-21T12:20:44;3.20;;;2.83;;
20611;SDS011;10465;42.686;23.364;2023-08-21T12:23:09;3.40;;;3.10;;
20611;SDS011;10465;42.686;23.364;2023-08-21T12:25:35;3.30;;;3.00;;
20611;SDS011;10465;42.686;23.364;2023-08-21T12:28:00;5.43;;;2.97;;
20611;SDS011;10465;42.686;23.364;2023-08-21T12:30:26;4.15;;;3.10;;
20611;SDS011;10465;42.686;23.364;2023-08-21T12:32:51;3.05;;;2.60;;
20611;SDS011;10465;42.686;23.364;2023-08-21T12:35:17;3.25;;;2.95;;
20611;SDS011;10465;42.686;23.364;2023-08-21T12:37:42;4.60;;;3.15;;
20611;SDS011;10465;42.686;23.364;2023-08-21T12:40:08;4.35;;;2.80;;
20611;SDS011;10465;42.686;23.364;2023-08-21T12:42:34;3.33;;;3.03;;
20611;SDS011;10465;42.686;23.364;2023-08-21T12:44:59;3.67;;;3.10;;
20611;SDS011;10465;42.686;23.364;2023-08-21T12:47:25;3.15;;;2.75;;
20611;SDS011;10465;42.686;23.364;2023-08-21T12:49:51;3.45;;;3.10;;
20611;SDS011;10465;42.686;23.364;2023-08-21T12:52:16;3.70;;;3.00;;
20611;SDS011;10465;42.686;23.364;2023-08-21T12:54:41;3.90;;;2.90;;
20611;SDS011;10465;42.686;23.364;2023-08-21T12:57:08;3.08;;;2.78;;
20611;SDS011;10465;42.686;23.364;2023-08-21T12:59:34;3.97;;;2.80;;
20611;SDS011;10465;42.686;23.364;2023-08-21T13:01:59;4.10;;;3.28;;
20611;SDS011;10465;42.686;23.364;2023-08-21T13:04:26;5.20;;;3.05;;
20611;SDS011;10465;42.686;23.364;2023-08-21T13:06:52;3.50;;;3.20;;
20611;SDS011;10465;42.686;23.364;2023-08-21T13:09:17;3.28;;;2.80;;
20611;SDS011;10465;42.686;23.364;2023-08-21T13:11:43;3.30;;;2.95;;
20611;SDS011;10465;42.686;23.364;2023-08-21T13:14:08;3.53;;;2.80;;
20611;SDS011;10465;42.686;23.364;2023-08-21T13:16:34;3.80;;;3.10;;
20611;SDS011;10465;42.686;23.364;2023-08-21T13:18:59;3.78;;;3.03;;
20611;SDS011;10465;42.686;23.364;2023-08-21T13:21:25;3.30;;;3.00;;
20611;SDS011;10465;42.686;23.364;2023-08-21T13:23:50;3.30;;;3.00;;
20611;SDS011;10465;42.686;23.364;2023-08-21T13:26:15;4.05;;;3.30;;
20611;SDS011;10465;42.686;23.364;2023-08-21T13:28:41;3.38;;;2.80;;
20611;SDS011;10465;42.686;23.364;2023-08-21T13:31:06;4.53;;;3.45;;
20611;SDS011;10465;42.686;23.364;2023-08-21T13:33:43;6.00;;;3.33;;
20611;SDS011;10465;42.686;23.364;2023-08-21T13:36:12;4.20;;;3.30;;
20611;SDS011;10465;42.686;23.364;2023-08-21T13:38:37;3.83;;;3.42;;
20611;SDS011;10465;42.686;23.364;2023-08-21T13:41:03;3.65;;;3.00;;
20611;SDS011;10465;42.686;23.364;2023-08-21T13:43:28;3.67;;;2.92;;
20611;SDS011;10465;42.686;23.364;2023-08-21T13:45:54;4.70;;;3.40;;
20611;SDS011;10465;42.686;23.364;2023-08-21T13:48:19;5.63;;;2.72;;
20611;SDS011;10465;42.686;23.364;2023-08-21T13:50:45;4.15;;;3.08;;
20611;SDS011;10465;42.686;23.364;2023-08-21T13:53:10;3.78;;;3.40;;
20611;SDS011;10465;42.686;23.364;2023-08-21T13:55:36;4.07;;;2.90;;
20611;SDS011;10465;42.686;23.364;2023-08-21T13:58:01;3.47;;;3.13;;
20611;SDS011;10465;42.686;23.364;2023-08-21T14:00:27;3.60;;;3.13;;
20611;SDS011;10465;42.686;23.364;2023-08-21T14:02:53;3.47;;;3.10;;
20611;SDS011;10465;42.686;23.364;2023-08-21T14:05:18;5.53;;;3.03;;
20611;SDS011;10465;42.686;23.364;2023-08-21T14:07:44;3.10;;;2.80;;
20611;SDS011;10465;42.686;23.364;2023-08-21T14:10:10;3.25;;;2.95;;
20611;SDS011;10465;42.686;23.364;2023-08-21T14:12:35;3.97;;;3.58;;
20611;SDS011;10465;42.686;23.364;2023-08-21T14:15:01;3.40;;;3.10;;
20611;SDS011;10465;42.686;23.364;2023-08-21T14:17:27;3.97;;;3.20;;
20611;SDS011;10465;42.686;23.364;2023-08-21T14:19:52;3.90;;;3.25;;
20611;SDS011;10465;42.686;23.364;2023-08-21T14:22:18;3.78;;;3.10;;
20611;SDS011;10465;42.686;23.364;2023-08-21T14:24:44;4.82;;;3.40;;
20611;SDS011;10465;42.686;23.364;2023-08-21T14:27:09;6.43;;;3.30;;
20611;SDS011;10465;42.686;23.364;2023-08-21T14:29:34;3.95;;;3.53;;
20611;SDS011;10465;42.686;23.364;2023-08-21T14:32:00;5.03;;;3.22;;
20611;SDS011;10465;42.686;23.364;2023-08-21T14:34:26;3.30;;;3.00;;
20611;SDS011;10465;42.686;23.364;2023-08-21T14:36:53;4.78;;;3.40;;
20611;SDS011;10465;42.686;23.364;2023-08-21T14:39:19;3.70;;;3.30;;
20611;SDS011;10465;42.686;23.364;2023-08-21T14:41:44;3.35;;;3.03;;